Terminal Aerodrome Forecast
Issued by NWS Mt. Holly, NJ

Home | Current Version | Previous Version | Text Only | Print | Product List | Glossary On
Versions: 1 2 3 4 5 6 7 8 9 10 11 12 13 14 15 16 17 18 19 20 21 22 23
000
FTUS41 KPHI 260845 AAA
TAFPHL
TAF AMD
KPHL 260845Z 2609/2712 22008KT P6SM SCT050 BKN150
     FM261300 27008KT P6SM SCT040
     FM261500 31012KT P6SM FEW050
     FM262300 33006KT P6SM SCT250
     FM270700 01006KT P6SM SKC=

USA.gov is the U.S. government's official web portal to all federal, state and local government web resources and services.